sensor_id;sensor_type;location;lat;lon;timestamp;P1;durP1;ratioP1;P2;durP2;ratioP2
41263;SDS011;26998;48.714;9.414;2023-06-01T00:01:17;11.32;;;4.40;;
41263;SDS011;26998;48.714;9.414;2023-06-01T00:03:44;7.30;;;3.90;;
41263;SDS011;26998;48.714;9.414;2023-06-01T00:06:11;6.55;;;4.38;;
41263;SDS011;26998;48.714;9.414;2023-06-01T00:08:37;6.47;;;4.10;;
41263;SDS011;26998;48.714;9.414;2023-06-01T00:11:04;8.20;;;4.63;;
41263;SDS011;26998;48.714;9.414;2023-06-01T00:13:31;6.38;;;4.70;;
41263;SDS011;26998;48.714;9.414;2023-06-01T00:15:57;8.18;;;4.85;;
41263;SDS011;26998;48.714;9.414;2023-06-01T00:18:24;8.70;;;5.05;;
41263;SDS011;26998;48.714;9.414;2023-06-01T00:20:51;7.90;;;4.43;;
41263;SDS011;26998;48.714;9.414;2023-06-01T00:23:17;13.27;;;4.70;;
41263;SDS011;26998;48.714;9.414;2023-06-01T00:25:44;8.73;;;4.63;;
41263;SDS011;26998;48.714;9.414;2023-06-01T00:28:10;9.57;;;5.38;;
41263;SDS011;26998;48.714;9.414;2023-06-01T00:30:36;9.05;;;4.80;;
41263;SDS011;26998;48.714;9.414;2023-06-01T00:33:04;8.48;;;5.72;;
41263;SDS011;26998;48.714;9.414;2023-06-01T00:35:30;7.90;;;4.88;;
41263;SDS011;26998;48.714;9.414;2023-06-01T00:37:57;10.85;;;5.72;;
41263;SDS011;26998;48.714;9.414;2023-06-01T00:40:23;7.28;;;4.63;;
41263;SDS011;26998;48.714;9.414;2023-06-01T00:42:50;5.70;;;4.30;;
41263;SDS011;26998;48.714;9.414;2023-06-01T00:45:17;12.60;;;5.18;;
41263;SDS011;26998;48.714;9.414;2023-06-01T00:47:44;8.15;;;4.80;;
41263;SDS011;26998;48.714;9.414;2023-06-01T00:50:10;5.22;;;4.47;;
41263;SDS011;26998;48.714;9.414;2023-06-01T00:52:38;6.57;;;4.13;;
41263;SDS011;26998;48.714;9.414;2023-06-01T00:55:05;5.50;;;4.68;;
41263;SDS011;26998;48.714;9.414;2023-06-01T00:57:33;9.68;;;5.15;;
41263;SDS011;26998;48.714;9.414;2023-06-01T01:00:02;6.35;;;4.72;;
41263;SDS011;26998;48.714;9.414;2023-06-01T01:02:29;7.38;;;4.97;;
41263;SDS011;26998;48.714;9.414;2023-06-01T01:04:56;9.65;;;4.93;;
41263;SDS011;26998;48.714;9.414;2023-06-01T01:07:29;8.82;;;4.55;;
41263;SDS011;26998;48.714;9.414;2023-06-01T01:15:53;6.88;;;4.53;;
41263;SDS011;26998;48.714;9.414;2023-06-01T01:18:45;9.45;;;4.93;;
41263;SDS011;26998;48.714;9.414;2023-06-01T01:21:13;8.65;;;5.00;;
41263;SDS011;26998;48.714;9.414;2023-06-01T01:29:16;8.57;;;4.82;;
41263;SDS011;26998;48.714;9.414;2023-06-01T01:31:46;8.48;;;4.60;;
41263;SDS011;26998;48.714;9.414;2023-06-01T01:34:16;9.07;;;4.97;;
41263;SDS011;26998;48.714;9.414;2023-06-01T01:36:45;10.48;;;5.25;;
41263;SDS011;26998;48.714;9.414;2023-06-01T01:39:12;5.75;;;4.40;;
41263;SDS011;26998;48.714;9.414;2023-06-01T01:41:39;5.45;;;4.50;;
41263;SDS011;26998;48.714;9.414;2023-06-01T01:44:06;9.13;;;4.80;;
41263;SDS011;26998;48.714;9.414;2023-06-01T01:46:36;10.57;;;5.25;;
41263;SDS011;26998;48.714;9.414;2023-06-01T01:49:08;6.55;;;4.70;;
41263;SDS011;26998;48.714;9.414;2023-06-01T01:51:46;7.63;;;5.55;;
41263;SDS011;26998;48.714;9.414;2023-06-01T01:54:18;6.85;;;4.65;;
41263;SDS011;26998;48.714;9.414;2023-06-01T01:56:46;8.02;;;5.00;;
41263;SDS011;26998;48.714;9.414;2023-06-01T01:59:15;9.23;;;4.97;;
41263;SDS011;26998;48.714;9.414;2023-06-01T02:01:44;7.85;;;5.20;;
41263;SDS011;26998;48.714;9.414;2023-06-01T02:04:12;6.95;;;4.85;;
41263;SDS011;26998;48.714;9.414;2023-06-01T02:06:39;7.63;;;4.95;;
41263;SDS011;26998;48.714;9.414;2023-06-01T02:09:05;9.48;;;4.68;;
41263;SDS011;26998;48.714;9.414;2023-06-01T02:11:35;7.38;;;5.22;;
41263;SDS011;26998;48.714;9.414;2023-06-01T02:14:02;8.43;;;5.60;;
41263;SDS011;26998;48.714;9.414;2023-06-01T02:16:29;6.32;;;5.25;;
41263;SDS011;26998;48.714;9.414;2023-06-01T02:18:56;6.45;;;4.72;;
41263;SDS011;26998;48.714;9.414;2023-06-01T02:21:23;10.02;;;5.68;;
41263;SDS011;26998;48.714;9.414;2023-06-01T02:23:50;7.85;;;5.10;;
41263;SDS011;26998;48.714;9.414;2023-06-01T02:26:17;7.72;;;5.20;;
41263;SDS011;26998;48.714;9.414;2023-06-01T02:28:43;8.40;;;5.22;;
41263;SDS011;26998;48.714;9.414;2023-06-01T02:31:10;8.75;;;5.07;;
41263;SDS011;26998;48.714;9.414;2023-06-01T02:33:38;8.00;;;5.22;;
41263;SDS011;26998;48.714;9.414;2023-06-01T02:36:05;6.93;;;5.00;;
41263;SDS011;26998;48.714;9.414;2023-06-01T02:38:31;8.23;;;5.53;;
41263;SDS011;26998;48.714;9.414;2023-06-01T02:40:58;8.57;;;5.13;;
41263;SDS011;26998;48.714;9.414;2023-06-01T02:43:26;7.13;;;5.50;;
41263;SDS011;26998;48.714;9.414;2023-06-01T02:45:52;7.88;;;5.18;;
41263;SDS011;26998;48.714;9.414;2023-06-01T02:48:19;8.77;;;5.18;;
41263;SDS011;26998;48.714;9.414;2023-06-01T02:50:46;13.10;;;5.10;;
41263;SDS011;26998;48.714;9.414;2023-06-01T02:53:12;6.90;;;4.72;;
41263;SDS011;26998;48.714;9.414;2023-06-01T02:55:39;6.38;;;4.90;;
41263;SDS011;26998;48.714;9.414;2023-06-01T02:58:05;8.93;;;5.00;;
41263;SDS011;26998;48.714;9.414;2023-06-01T03:00:32;11.52;;;5.70;;
41263;SDS011;26998;48.714;9.414;2023-06-01T03:02:58;8.43;;;5.22;;
41263;SDS011;26998;48.714;9.414;2023-06-01T03:05:25;7.60;;;5.47;;
41263;SDS011;26998;48.714;9.414;2023-06-01T03:07:52;9.90;;;5.65;;
41263;SDS011;26998;48.714;9.414;2023-06-01T03:10:18;9.40;;;5.35;;
41263;SDS011;26998;48.714;9.414;2023-06-01T03:12:45;8.13;;;5.20;;
41263;SDS011;26998;48.714;9.414;2023-06-01T03:15:12;9.35;;;5.20;;
41263;SDS011;26998;48.714;9.414;2023-06-01T03:17:38;8.30;;;5.35;;
41263;SDS011;26998;48.714;9.414;2023-06-01T03:20:05;8.57;;;5.65;;
41263;SDS011;26998;48.714;9.414;2023-06-01T03:22:32;8.05;;;5.55;;
41263;SDS011;26998;48.714;9.414;2023-06-01T03:24:58;9.77;;;5.43;;
41263;SDS011;26998;48.714;9.414;2023-06-01T03:27:25;9.38;;;4.85;;
41263;SDS011;26998;48.714;9.414;2023-06-01T03:29:51;8.60;;;5.13;;
41263;SDS011;26998;48.714;9.414;2023-06-01T03:32:18;11.35;;;5.88;;
41263;SDS011;26998;48.714;9.414;2023-06-01T03:34:44;12.20;;;5.50;;
41263;SDS011;26998;48.714;9.414;2023-06-01T03:37:11;11.82;;;5.85;;
41263;SDS011;26998;48.714;9.414;2023-06-01T03:39:37;8.90;;;5.97;;
41263;SDS011;26998;48.714;9.414;2023-06-01T03:42:04;8.57;;;5.72;;
41263;SDS011;26998;48.714;9.414;2023-06-01T03:44:31;11.05;;;5.78;;
41263;SDS011;26998;48.714;9.414;2023-06-01T03:46:59;11.60;;;5.75;;
41263;SDS011;26998;48.714;9.414;2023-06-01T03:49:27;16.23;;;5.90;;
41263;SDS011;26998;48.714;9.414;2023-06-01T03:51:54;8.32;;;5.90;;
41263;SDS011;26998;48.714;9.414;2023-06-01T03:54:21;7.60;;;5.40;;
41263;SDS011;26998;48.714;9.414;2023-06-01T03:56:48;7.50;;;5.38;;
41263;SDS011;26998;48.714;9.414;2023-06-01T03:59:14;7.40;;;5.82;;
41263;SDS011;26998;48.714;9.414;2023-06-01T04:01:41;10.15;;;5.55;;
41263;SDS011;26998;48.714;9.414;2023-06-01T04:04:08;11.45;;;6.18;;
41263;SDS011;26998;48.714;9.414;2023-06-01T04:06:35;10.65;;;6.18;;
41263;SDS011;26998;48.714;9.414;2023-06-01T04:09:02;11.77;;;6.28;;
41263;SDS011;26998;48.714;9.414;2023-06-01T04:11:30;9.27;;;6.25;;
41263;SDS011;26998;48.714;9.414;2023-06-01T04:13:56;11.75;;;6.63;;
41263;SDS011;26998;48.714;9.414;2023-06-01T04:16:23;11.10;;;6.10;;
41263;SDS011;26998;48.714;9.414;2023-06-01T04:18:52;8.05;;;6.30;;
41263;SDS011;26998;48.714;9.414;2023-06-01T04:21:22;12.35;;;6.50;;
41263;SDS011;26998;48.714;9.414;2023-06-01T04:23:55;11.90;;;6.43;;
41263;SDS011;26998;48.714;9.414;2023-06-01T04:26:22;11.18;;;6.13;;
41263;SDS011;26998;48.714;9.414;2023-06-01T04:28:48;8.70;;;6.38;;
41263;SDS011;26998;48.714;9.414;2023-06-01T04:31:15;11.23;;;6.82;;
41263;SDS011;26998;48.714;9.414;2023-06-01T04:33:43;11.98;;;6.05;;
41263;SDS011;26998;48.714;9.414;2023-06-01T04:36:11;10.80;;;6.45;;
41263;SDS011;26998;48.714;9.414;2023-06-01T04:41:09;7.95;;;5.80;;
41263;SDS011;26998;48.714;9.414;2023-06-01T04:43:36;9.60;;;6.22;;
41263;SDS011;26998;48.714;9.414;2023-06-01T04:46:04;11.10;;;5.22;;
41263;SDS011;26998;48.714;9.414;2023-06-01T04:48:31;8.02;;;6.15;;
41263;SDS011;26998;48.714;9.414;2023-06-01T04:50:58;9.48;;;5.97;;
41263;SDS011;26998;48.714;9.414;2023-06-01T04:53:25;10.10;;;5.88;;
41263;SDS011;26998;48.714;9.414;2023-06-01T04:55:52;9.43;;;5.53;;
41263;SDS011;26998;48.714;9.414;2023-06-01T04:58:19;11.30;;;6.55;;
41263;SDS011;26998;48.714;9.414;2023-06-01T05:00:45;7.75;;;5.45;;
41263;SDS011;26998;48.714;9.414;2023-06-01T05:03:13;10.60;;;5.97;;
41263;SDS011;26998;48.714;9.414;2023-06-01T05:05:39;11.52;;;5.75;;
41263;SDS011;26998;48.714;9.414;2023-06-01T05:08:06;9.13;;;5.28;;
41263;SDS011;26998;48.714;9.414;2023-06-01T05:10:33;8.13;;;5.45;;
41263;SDS011;26998;48.714;9.414;2023-06-01T05:13:00;8.55;;;5.50;;
41263;SDS011;26998;48.714;9.414;2023-06-01T05:15:26;10.77;;;5.85;;
41263;SDS011;26998;48.714;9.414;2023-06-01T05:17:53;8.45;;;5.30;;
41263;SDS011;26998;48.714;9.414;2023-06-01T05:20:20;7.47;;;5.40;;
41263;SDS011;26998;48.714;9.414;2023-06-01T05:22:47;11.00;;;5.97;;
41263;SDS011;26998;48.714;9.414;2023-06-01T05:25:14;8.27;;;5.78;;
41263;SDS011;26998;48.714;9.414;2023-06-01T05:27:41;7.32;;;5.25;;
41263;SDS011;26998;48.714;9.414;2023-06-01T05:30:07;10.55;;;5.90;;
41263;SDS011;26998;48.714;9.414;2023-06-01T05:32:34;10.15;;;6.00;;
41263;SDS011;26998;48.714;9.414;2023-06-01T05:35:01;9.15;;;5.53;;
41263;SDS011;26998;48.714;9.414;2023-06-01T05:37:27;7.38;;;4.60;;
41263;SDS011;26998;48.714;9.414;2023-06-01T05:39:54;7.53;;;5.55;;
41263;SDS011;26998;48.714;9.414;2023-06-01T05:42:20;7.88;;;5.50;;
41263;SDS011;26998;48.714;9.414;2023-06-01T05:44:47;10.43;;;5.97;;
41263;SDS011;26998;48.714;9.414;2023-06-01T05:47:14;8.73;;;5.93;;
41263;SDS011;26998;48.714;9.414;2023-06-01T05:49:40;7.72;;;5.53;;
41263;SDS011;26998;48.714;9.414;2023-06-01T05:52:08;8.45;;;5.32;;
41263;SDS011;26998;48.714;9.414;2023-06-01T05:54:35;8.27;;;5.95;;
41263;SDS011;26998;48.714;9.414;2023-06-01T05:57:05;10.95;;;5.88;;
41263;SDS011;26998;48.714;9.414;2023-06-01T05:59:32;7.40;;;5.20;;
41263;SDS011;26998;48.714;9.414;2023-06-01T06:01:59;7.75;;;5.75;;
41263;SDS011;26998;48.714;9.414;2023-06-01T06:04:26;10.40;;;6.32;;
41263;SDS011;26998;48.714;9.414;2023-06-01T06:06:53;10.50;;;6.57;;
41263;SDS011;26998;48.714;9.414;2023-06-01T06:09:19;11.68;;;5.82;;
41263;SDS011;26998;48.714;9.414;2023-06-01T06:11:46;10.70;;;6.03;;
41263;SDS011;26998;48.714;9.414;2023-06-01T06:14:13;10.63;;;6.85;;
41263;SDS011;26998;48.714;9.414;2023-06-01T06:16:41;12.82;;;6.32;;
41263;SDS011;26998;48.714;9.414;2023-06-01T06:19:08;12.25;;;6.75;;
41263;SDS011;26998;48.714;9.414;2023-06-01T06:21:35;8.90;;;6.28;;
41263;SDS011;26998;48.714;9.414;2023-06-01T06:24:04;15.23;;;6.22;;
41263;SDS011;26998;48.714;9.414;2023-06-01T06:26:30;9.63;;;6.28;;
41263;SDS011;26998;48.714;9.414;2023-06-01T06:28:57;11.20;;;5.80;;
41263;SDS011;26998;48.714;9.414;2023-06-01T06:31:24;10.98;;;5.45;;
41263;SDS011;26998;48.714;9.414;2023-06-01T06:33:52;10.40;;;6.20;;
41263;SDS011;26998;48.714;9.414;2023-06-01T06:36:19;10.15;;;5.95;;
41263;SDS011;26998;48.714;9.414;2023-06-01T06:38:45;9.45;;;6.00;;
41263;SDS011;26998;48.714;9.414;2023-06-01T06:41:12;20.63;;;6.28;;
41263;SDS011;26998;48.714;9.414;2023-06-01T06:43:39;13.25;;;5.82;;
41263;SDS011;26998;48.714;9.414;2023-06-01T06:46:07;12.63;;;5.57;;
41263;SDS011;26998;48.714;9.414;2023-06-01T06:48:33;10.45;;;6.15;;
41263;SDS011;26998;48.714;9.414;2023-06-01T06:51:02;13.52;;;5.53;;
41263;SDS011;26998;48.714;9.414;2023-06-01T06:53:29;13.27;;;6.38;;
41263;SDS011;26998;48.714;9.414;2023-06-01T06:55:57;11.45;;;6.03;;
41263;SDS011;26998;48.714;9.414;2023-06-01T06:58:25;8.75;;;5.65;;
41263;SDS011;26998;48.714;9.414;2023-06-01T07:00:53;8.45;;;5.00;;
41263;SDS011;26998;48.714;9.414;2023-06-01T07:03:20;12.32;;;6.78;;
41263;SDS011;26998;48.714;9.414;2023-06-01T07:05:49;15.70;;;7.70;;
41263;SDS011;26998;48.714;9.414;2023-06-01T07:08:16;18.33;;;7.95;;
41263;SDS011;26998;48.714;9.414;2023-06-01T07:10:43;11.10;;;7.15;;
41263;SDS011;26998;48.714;9.414;2023-06-01T07:13:10;23.88;;;9.35;;
41263;SDS011;26998;48.714;9.414;2023-06-01T07:15:37;17.92;;;8.35;;
41263;SDS011;26998;48.714;9.414;2023-06-01T07:18:04;15.82;;;6.57;;
41263;SDS011;26998;48.714;9.414;2023-06-01T07:20:32;11.32;;;5.45;;
41263;SDS011;26998;48.714;9.414;2023-06-01T07:23:00;14.18;;;5.70;;
41263;SDS011;26998;48.714;9.414;2023-06-01T07:25:27;9.77;;;6.43;;
41263;SDS011;26998;48.714;9.414;2023-06-01T07:27:58;11.02;;;6.65;;
41263;SDS011;26998;48.714;9.414;2023-06-01T07:30:25;11.35;;;5.80;;
41263;SDS011;26998;48.714;9.414;2023-06-01T07:32:52;9.43;;;5.68;;
41263;SDS011;26998;48.714;9.414;2023-06-01T07:35:19;11.48;;;4.95;;
41263;SDS011;26998;48.714;9.414;2023-06-01T07:37:51;10.48;;;4.88;;
41263;SDS011;26998;48.714;9.414;2023-06-01T07:40:18;10.35;;;5.65;;
41263;SDS011;26998;48.714;9.414;2023-06-01T07:42:44;19.02;;;6.88;;
41263;SDS011;26998;48.714;9.414;2023-06-01T07:45:12;9.98;;;5.85;;
41263;SDS011;26998;48.714;9.414;2023-06-01T07:47:40;11.57;;;6.35;;
41263;SDS011;26998;48.714;9.414;2023-06-01T07:50:07;10.40;;;5.95;;
41263;SDS011;26998;48.714;9.414;2023-06-01T07:52:34;8.73;;;5.65;;
41263;SDS011;26998;48.714;9.414;2023-06-01T07:55:01;9.98;;;4.68;;
41263;SDS011;26998;48.714;9.414;2023-06-01T07:57:29;11.85;;;5.63;;
41263;SDS011;26998;48.714;9.414;2023-06-01T07:59:55;12.45;;;5.43;;
41263;SDS011;26998;48.714;9.414;2023-06-01T08:02:22;13.50;;;6.07;;
41263;SDS011;26998;48.714;9.414;2023-06-01T08:04:49;8.05;;;5.18;;
41263;SDS011;26998;48.714;9.414;2023-06-01T08:07:17;10.82;;;5.13;;
41263;SDS011;26998;48.714;9.414;2023-06-01T08:09:44;13.52;;;5.50;;
41263;SDS011;26998;48.714;9.414;2023-06-01T08:12:13;15.10;;;5.57;;
41263;SDS011;26998;48.714;9.414;2023-06-01T08:14:40;11.32;;;5.05;;
41263;SDS011;26998;48.714;9.414;2023-06-01T08:17:07;11.13;;;4.80;;
41263;SDS011;26998;48.714;9.414;2023-06-01T08:19:34;9.35;;;5.38;;
41263;SDS011;26998;48.714;9.414;2023-06-01T08:22:01;9.30;;;5.05;;
41263;SDS011;26998;48.714;9.414;2023-06-01T08:24:30;14.30;;;5.53;;
41263;SDS011;26998;48.714;9.414;2023-06-01T08:26:57;9.48;;;4.82;;
41263;SDS011;26998;48.714;9.414;2023-06-01T08:29:24;11.43;;;4.75;;
41263;SDS011;26998;48.714;9.414;2023-06-01T08:32:07;13.70;;;5.55;;
41263;SDS011;26998;48.714;9.414;2023-06-01T08:34:34;7.90;;;4.63;;
41263;SDS011;26998;48.714;9.414;2023-06-01T08:37:01;5.85;;;4.85;;
41263;SDS011;26998;48.714;9.414;2023-06-01T08:39:27;8.13;;;4.85;;
41263;SDS011;26998;48.714;9.414;2023-06-01T08:42:07;6.93;;;4.07;;
41263;SDS011;26998;48.714;9.414;2023-06-01T08:44:41;12.00;;;5.18;;
41263;SDS011;26998;48.714;9.414;2023-06-01T08:47:08;8.35;;;4.63;;
41263;SDS011;26998;48.714;9.414;2023-06-01T08:49:35;7.03;;;4.88;;
41263;SDS011;26998;48.714;9.414;2023-06-01T08:52:07;12.63;;;5.50;;
41263;SDS011;26998;48.714;9.414;2023-06-01T08:54:38;9.20;;;5.28;;
41263;SDS011;26998;48.714;9.414;2023-06-01T08:57:06;7.93;;;4.45;;
41263;SDS011;26998;48.714;9.414;2023-06-01T08:59:35;7.40;;;4.47;;
41263;SDS011;26998;48.714;9.414;2023-06-01T09:02:03;9.80;;;4.93;;
41263;SDS011;26998;48.714;9.414;2023-06-01T09:04:33;14.37;;;5.70;;
41263;SDS011;26998;48.714;9.414;2023-06-01T09:07:00;7.30;;;4.30;;
41263;SDS011;26998;48.714;9.414;2023-06-01T09:09:27;6.07;;;4.35;;
41263;SDS011;26998;48.714;9.414;2023-06-01T09:17:39;15.73;;;4.85;;
41263;SDS011;26998;48.714;9.414;2023-06-01T09:20:13;14.07;;;5.88;;
41263;SDS011;26998;48.714;9.414;2023-06-01T09:22:44;9.45;;;5.05;;
41263;SDS011;26998;48.714;9.414;2023-06-01T09:25:12;9.68;;;4.82;;
41263;SDS011;26998;48.714;9.414;2023-06-01T09:27:44;10.80;;;4.43;;
41263;SDS011;26998;48.714;9.414;2023-06-01T09:30:12;8.75;;;4.72;;
41263;SDS011;26998;48.714;9.414;2023-06-01T09:32:42;11.85;;;5.35;;
41263;SDS011;26998;48.714;9.414;2023-06-01T09:35:09;8.82;;;5.05;;
41263;SDS011;26998;48.714;9.414;2023-06-01T09:37:37;9.93;;;5.15;;
41263;SDS011;26998;48.714;9.414;2023-06-01T09:40:25;6.95;;;5.13;;
41263;SDS011;26998;48.714;9.414;2023-06-01T09:42:52;7.15;;;4.57;;
41263;SDS011;26998;48.714;9.414;2023-06-01T09:45:20;9.52;;;5.20;;
41263;SDS011;26998;48.714;9.414;2023-06-01T09:47:48;9.10;;;4.65;;
41263;SDS011;26998;48.714;9.414;2023-06-01T09:50:31;7.80;;;4.55;;
41263;SDS011;26998;48.714;9.414;2023-06-01T09:53:01;15.70;;;5.30;;
41263;SDS011;26998;48.714;9.414;2023-06-01T09:55:31;16.27;;;5.63;;
41263;SDS011;26998;48.714;9.414;2023-06-01T09:58:16;9.10;;;5.10;;
41263;SDS011;26998;48.714;9.414;2023-06-01T10:00:48;9.18;;;4.88;;
41263;SDS011;26998;48.714;9.414;2023-06-01T10:03:17;8.02;;;4.97;;
41263;SDS011;26998;48.714;9.414;2023-06-01T10:05:48;8.70;;;5.18;;
41263;SDS011;26998;48.714;9.414;2023-06-01T10:08:17;8.20;;;4.57;;
41263;SDS011;26998;48.714;9.414;2023-06-01T10:10:45;7.68;;;4.55;;
41263;SDS011;26998;48.714;9.414;2023-06-01T10:13:14;6.20;;;4.53;;
41263;SDS011;26998;48.714;9.414;2023-06-01T10:15:42;7.90;;;5.63;;
41263;SDS011;26998;48.714;9.414;2023-06-01T10:18:08;6.80;;;4.65;;
41263;SDS011;26998;48.714;9.414;2023-06-01T10:20:41;5.47;;;4.45;;
41263;SDS011;26998;48.714;9.414;2023-06-01T10:23:07;11.20;;;4.28;;
41263;SDS011;26998;48.714;9.414;2023-06-01T10:25:54;8.70;;;4.57;;
41263;SDS011;26998;48.714;9.414;2023-06-01T10:28:22;6.80;;;4.60;;
41263;SDS011;26998;48.714;9.414;2023-06-01T10:34:04;8.18;;;4.15;;
41263;SDS011;26998;48.714;9.414;2023-06-01T10:52:26;6.68;;;5.22;;
41263;SDS011;26998;48.714;9.414;2023-06-01T10:54:54;10.60;;;5.25;;
41263;SDS011;26998;48.714;9.414;2023-06-01T10:57:22;8.20;;;4.70;;
41263;SDS011;26998;48.714;9.414;2023-06-01T11:00:23;6.75;;;4.88;;
41263;SDS011;26998;48.714;9.414;2023-06-01T11:02:57;12.05;;;5.38;;
41263;SDS011;26998;48.714;9.414;2023-06-01T11:08:04;7.45;;;5.30;;
41263;SDS011;26998;48.714;9.414;2023-06-01T11:21:20;7.22;;;5.28;;
41263;SDS011;26998;48.714;9.414;2023-06-01T11:23:48;8.18;;;5.05;;
41263;SDS011;26998;48.714;9.414;2023-06-01T11:26:16;5.72;;;4.30;;
41263;SDS011;26998;48.714;9.414;2023-06-01T11:28:45;7.38;;;5.05;;
41263;SDS011;26998;48.714;9.414;2023-06-01T11:31:13;8.15;;;5.75;;
41263;SDS011;26998;48.714;9.414;2023-06-01T11:33:47;5.70;;;4.22;;
41263;SDS011;26998;48.714;9.414;2023-06-01T11:36:16;12.30;;;5.03;;
41263;SDS011;26998;48.714;9.414;2023-06-01T11:38:45;12.07;;;4.90;;
41263;SDS011;26998;48.714;9.414;2023-06-01T11:41:15;9.55;;;5.13;;
41263;SDS011;26998;48.714;9.414;2023-06-01T11:43:41;7.68;;;4.63;;
41263;SDS011;26998;48.714;9.414;2023-06-01T11:46:08;7.78;;;5.15;;
41263;SDS011;26998;48.714;9.414;2023-06-01T11:49:00;7.32;;;4.43;;
41263;SDS011;26998;48.714;9.414;2023-06-01T11:51:29;8.70;;;4.80;;
41263;SDS011;26998;48.714;9.414;2023-06-01T11:54:16;9.20;;;4.93;;
41263;SDS011;26998;48.714;9.414;2023-06-01T11:56:43;6.53;;;4.88;;
41263;SDS011;26998;48.714;9.414;2023-06-01T11:59:11;5.95;;;4.63;;
41263;SDS011;26998;48.714;9.414;2023-06-01T12:01:41;6.35;;;4.55;;
41263;SDS011;26998;48.714;9.414;2023-06-01T12:04:16;7.35;;;4.68;;
41263;SDS011;26998;48.714;9.414;2023-06-01T12:06:45;7.93;;;4.68;;
41263;SDS011;26998;48.714;9.414;2023-06-01T12:09:11;9.13;;;4.60;;
41263;SDS011;26998;48.714;9.414;2023-06-01T12:11:40;7.63;;;4.97;;
41263;SDS011;26998;48.714;9.414;2023-06-01T12:14:08;12.13;;;6.75;;
41263;SDS011;26998;48.714;9.414;2023-06-01T12:19:25;6.47;;;4.43;;
41263;SDS011;26998;48.714;9.414;2023-06-01T12:21:57;8.98;;;4.78;;
41263;SDS011;26998;48.714;9.414;2023-06-01T12:24:28;9.57;;;4.90;;
41263;SDS011;26998;48.714;9.414;2023-06-01T12:26:56;6.35;;;5.00;;
41263;SDS011;26998;48.714;9.414;2023-06-01T12:29:39;9.07;;;4.90;;
41263;SDS011;26998;48.714;9.414;2023-06-01T12:32:08;9.25;;;4.88;;
41263;SDS011;26998;48.714;9.414;2023-06-01T12:34:36;8.70;;;5.20;;
41263;SDS011;26998;48.714;9.414;2023-06-01T12:37:11;8.75;;;5.05;;
41263;SDS011;26998;48.714;9.414;2023-06-01T12:39:38;6.53;;;4.90;;
41263;SDS011;26998;48.714;9.414;2023-06-01T12:42:05;5.20;;;4.70;;
41263;SDS011;26998;48.714;9.414;2023-06-01T12:44:32;7.07;;;4.70;;
41263;SDS011;26998;48.714;9.414;2023-06-01T12:47:01;7.55;;;4.60;;
41263;SDS011;26998;48.714;9.414;2023-06-01T12:49:28;7.85;;;4.70;;
41263;SDS011;26998;48.714;9.414;2023-06-01T12:51:54;5.75;;;4.55;;
41263;SDS011;26998;48.714;9.414;2023-06-01T12:54:21;5.13;;;4.63;;
41263;SDS011;26998;48.714;9.414;2023-06-01T12:56:48;8.30;;;4.97;;
41263;SDS011;26998;48.714;9.414;2023-06-01T12:59:15;9.07;;;4.70;;
41263;SDS011;26998;48.714;9.414;2023-06-01T13:01:42;7.78;;;5.05;;
41263;SDS011;26998;48.714;9.414;2023-06-01T13:04:09;9.40;;;4.72;;
41263;SDS011;26998;48.714;9.414;2023-06-01T13:06:39;9.15;;;4.30;;
41263;SDS011;26998;48.714;9.414;2023-06-01T13:09:06;6.53;;;4.93;;
41263;SDS011;26998;48.714;9.414;2023-06-01T13:11:33;7.57;;;4.30;;
41263;SDS011;26998;48.714;9.414;2023-06-01T13:14:00;9.02;;;4.28;;
41263;SDS011;26998;48.714;9.414;2023-06-01T13:16:27;11.25;;;4.60;;
41263;SDS011;26998;48.714;9.414;2023-06-01T13:18:54;8.38;;;4.68;;
41263;SDS011;26998;48.714;9.414;2023-06-01T13:21:20;8.80;;;4.55;;
41263;SDS011;26998;48.714;9.414;2023-06-01T13:23:47;6.68;;;5.00;;
41263;SDS011;26998;48.714;9.414;2023-06-01T13:26:14;7.10;;;4.85;;
41263;SDS011;26998;48.714;9.414;2023-06-01T13:28:40;10.30;;;4.63;;
41263;SDS011;26998;48.714;9.414;2023-06-01T13:31:07;7.57;;;4.70;;
41263;SDS011;26998;48.714;9.414;2023-06-01T13:33:34;8.02;;;4.80;;
41263;SDS011;26998;48.714;9.414;2023-06-01T13:36:01;6.93;;;4.25;;
41263;SDS011;26998;48.714;9.414;2023-06-01T13:38:28;8.15;;;4.88;;
41263;SDS011;26998;48.714;9.414;2023-06-01T13:40:57;12.95;;;8.52;;
41263;SDS011;26998;48.714;9.414;2023-06-01T13:43:25;6.10;;;4.80;;
41263;SDS011;26998;48.714;9.414;2023-06-01T13:45:53;15.50;;;4.85;;
41263;SDS011;26998;48.714;9.414;2023-06-01T13:48:20;6.53;;;4.53;;
41263;SDS011;26998;48.714;9.414;2023-06-01T13:50:47;6.45;;;4.38;;
41263;SDS011;26998;48.714;9.414;2023-06-01T13:53:14;6.43;;;4.57;;
41263;SDS011;26998;48.714;9.414;2023-06-01T13:55:40;5.55;;;4.13;;
41263;SDS011;26998;48.714;9.414;2023-06-01T13:58:07;7.75;;;4.60;;
41263;SDS011;26998;48.714;9.414;2023-06-01T14:00:34;5.88;;;4.35;;
41263;SDS011;26998;48.714;9.414;2023-06-01T14:03:00;6.25;;;4.35;;
41263;SDS011;26998;48.714;9.414;2023-06-01T14:05:27;7.18;;;4.30;;
41263;SDS011;26998;48.714;9.414;2023-06-01T14:08:14;11.90;;;5.50;;
41263;SDS011;26998;48.714;9.414;2023-06-01T14:10:44;7.65;;;4.55;;
41263;SDS011;26998;48.714;9.414;2023-06-01T14:13:11;7.15;;;4.32;;
41263;SDS011;26998;48.714;9.414;2023-06-01T14:15:37;7.72;;;4.63;;
41263;SDS011;26998;48.714;9.414;2023-06-01T14:18:04;7.07;;;4.45;;
41263;SDS011;26998;48.714;9.414;2023-06-01T14:20:34;8.50;;;4.63;;
41263;SDS011;26998;48.714;9.414;2023-06-01T14:23:01;7.82;;;3.70;;
41263;SDS011;26998;48.714;9.414;2023-06-01T14:25:27;6.30;;;3.88;;
41263;SDS011;26998;48.714;9.414;2023-06-01T14:27:54;6.20;;;4.20;;
41263;SDS011;26998;48.714;9.414;2023-06-01T14:30:20;7.82;;;4.43;;
41263;SDS011;26998;48.714;9.414;2023-06-01T14:32:47;5.20;;;3.50;;
41263;SDS011;26998;48.714;9.414;2023-06-01T14:35:15;5.90;;;4.10;;
41263;SDS011;26998;48.714;9.414;2023-06-01T14:37:42;5.88;;;3.85;;
41263;SDS011;26998;48.714;9.414;2023-06-01T14:40:15;6.95;;;3.97;;
41263;SDS011;26998;48.714;9.414;2023-06-01T14:42:42;6.53;;;4.20;;
41263;SDS011;26998;48.714;9.414;2023-06-01T14:45:09;5.60;;;3.47;;
41263;SDS011;26998;48.714;9.414;2023-06-01T14:47:36;5.57;;;4.18;;
41263;SDS011;26998;48.714;9.414;2023-06-01T14:50:03;7.18;;;3.70;;
41263;SDS011;26998;48.714;9.414;2023-06-01T14:52:31;10.48;;;3.72;;
41263;SDS011;26998;48.714;9.414;2023-06-01T14:54:58;7.40;;;3.65;;
41263;SDS011;26998;48.714;9.414;2023-06-01T14:57:25;7.13;;;3.85;;
41263;SDS011;26998;48.714;9.414;2023-06-01T14:59:51;6.03;;;3.58;;
41263;SDS011;26998;48.714;9.414;2023-06-01T15:02:30;6.40;;;3.80;;
41263;SDS011;26998;48.714;9.414;2023-06-01T15:04:57;11.32;;;4.05;;
41263;SDS011;26998;48.714;9.414;2023-06-01T15:07:24;6.60;;;3.47;;
41263;SDS011;26998;48.714;9.414;2023-06-01T15:09:51;4.57;;;3.10;;
41263;SDS011;26998;48.714;9.414;2023-06-01T15:12:17;5.78;;;3.28;;
41263;SDS011;26998;48.714;9.414;2023-06-01T15:14:44;5.47;;;3.30;;
41263;SDS011;26998;48.714;9.414;2023-06-01T15:17:10;4.90;;;3.15;;
41263;SDS011;26998;48.714;9.414;2023-06-01T15:19:37;6.72;;;3.58;;
41263;SDS011;26998;48.714;9.414;2023-06-01T15:22:04;5.95;;;3.72;;
41263;SDS011;26998;48.714;9.414;2023-06-01T15:24:34;6.85;;;2.92;;
41263;SDS011;26998;48.714;9.414;2023-06-01T15:27:01;7.45;;;3.47;;
41263;SDS011;26998;48.714;9.414;2023-06-01T15:29:27;6.05;;;2.92;;
41263;SDS011;26998;48.714;9.414;2023-06-01T15:31:58;5.40;;;2.40;;
41263;SDS011;26998;48.714;9.414;2023-06-01T15:34:30;6.63;;;2.67;;
41263;SDS011;26998;48.714;9.414;2023-06-01T15:36:56;5.38;;;2.88;;
41263;SDS011;26998;48.714;9.414;2023-06-01T15:39:24;4.07;;;2.80;;
41263;SDS011;26998;48.714;9.414;2023-06-01T15:41:51;6.10;;;3.03;;
41263;SDS011;26998;48.714;9.414;2023-06-01T15:44:23;4.90;;;2.60;;